sensor_id;sensor_type;location;lat;lon;timestamp;pressure;altitude;pressure_sealevel;temperature;humidity
68506;BME280;55509;50.680;17.942;2022-12-18T00:01:31;101301.96;;;-5.40;86.88
68506;BME280;55509;50.680;17.942;2022-12-18T00:04:34;101302.33;;;-5.37;86.87
68506;BME280;55509;50.680;17.942;2022-12-18T00:07:35;101306.59;;;-5.37;86.80
68506;BME280;55509;50.680;17.942;2022-12-18T00:10:38;101312.50;;;-5.42;86.50
68506;BME280;55509;50.680;17.942;2022-12-18T00:13:39;101318.42;;;-5.45;86.56
68506;BME280;55509;50.680;17.942;2022-12-18T00:16:43;101315.70;;;-5.51;86.59
68506;BME280;55509;50.680;17.942;2022-12-18T00:19:45;101321.41;;;-5.55;86.63
68506;BME280;55509;50.680;17.942;2022-12-18T00:22:46;101325.65;;;-5.62;86.63
68506;BME280;55509;50.680;17.942;2022-12-18T00:25:48;101328.70;;;-5.67;86.42
68506;BME280;55509;50.680;17.942;2022-12-18T00:28:49;101334.38;;;-5.73;86.78
68506;BME280;55509;50.680;17.942;2022-12-18T00:31:51;101342.36;;;-5.77;86.86
68506;BME280;55509;50.680;17.942;2022-12-18T00:34:53;101341.70;;;-5.81;86.97
68506;BME280;55509;50.680;17.942;2022-12-18T00:37:54;101344.59;;;-5.84;86.95
68506;BME280;55509;50.680;17.942;2022-12-18T00:40:56;101344.41;;;-5.84;86.83
68506;BME280;55509;50.680;17.942;2022-12-18T00:43:57;101350.05;;;-5.82;86.81
68506;BME280;55509;50.680;17.942;2022-12-18T00:46:59;101348.52;;;-5.79;86.93
68506;BME280;55509;50.680;17.942;2022-12-18T00:50:00;101357.21;;;-5.75;86.86
68506;BME280;55509;50.680;17.942;2022-12-18T00:53:02;101362.16;;;-5.69;86.85
68506;BME280;55509;50.680;17.942;2022-12-18T00:56:03;101366.27;;;-5.70;86.78
68506;BME280;55509;50.680;17.942;2022-12-18T00:59:05;101371.83;;;-5.71;86.54
68506;BME280;55509;50.680;17.942;2022-12-18T01:02:06;101377.51;;;-5.73;86.62
68506;BME280;55509;50.680;17.942;2022-12-18T01:05:09;101379.48;;;-5.77;86.58
68506;BME280;55509;50.680;17.942;2022-12-18T01:08:11;101384.05;;;-5.81;86.64
68506;BME280;55509;50.680;17.942;2022-12-18T01:11:16;101385.72;;;-5.84;86.50
68506;BME280;55509;50.680;17.942;2022-12-18T01:14:19;101387.05;;;-5.88;86.48
68506;BME280;55509;50.680;17.942;2022-12-18T01:17:20;101393.33;;;-5.91;86.63
68506;BME280;55509;50.680;17.942;2022-12-18T01:20:22;101397.77;;;-5.94;86.66
68506;BME280;55509;50.680;17.942;2022-12-18T01:23:23;101405.52;;;-5.96;86.74
68506;BME280;55509;50.680;17.942;2022-12-18T01:26:25;101403.59;;;-5.99;86.70
68506;BME280;55509;50.680;17.942;2022-12-18T01:29:28;101403.36;;;-6.03;86.61
68506;BME280;55509;50.680;17.942;2022-12-18T01:32:30;101405.18;;;-6.04;86.86
68506;BME280;55509;50.680;17.942;2022-12-18T01:35:32;101405.52;;;-6.01;86.78
68506;BME280;55509;50.680;17.942;2022-12-18T01:38:33;101409.48;;;-5.96;86.91
68506;BME280;55509;50.680;17.942;2022-12-18T01:41:35;101416.35;;;-5.90;86.74
68506;BME280;55509;50.680;17.942;2022-12-18T01:48:06;101413.16;;;-5.79;86.63
68506;BME280;55509;50.680;17.942;2022-12-18T01:51:09;101418.31;;;-5.73;86.40
68506;BME280;55509;50.680;17.942;2022-12-18T01:54:11;101421.85;;;-5.69;86.24
68506;BME280;55509;50.680;17.942;2022-12-18T01:57:13;101427.45;;;-5.64;86.26
68506;BME280;55509;50.680;17.942;2022-12-18T02:00:18;101428.11;;;-5.62;86.12
68506;BME280;55509;50.680;17.942;2022-12-18T02:03:21;101430.77;;;-5.63;86.10
68506;BME280;55509;50.680;17.942;2022-12-18T02:06:27;101433.46;;;-5.67;86.13
68506;BME280;55509;50.680;17.942;2022-12-18T02:09:39;101441.76;;;-5.71;85.94
68506;BME280;55509;50.680;17.942;2022-12-18T02:12:51;101444.29;;;-5.78;85.88
68506;BME280;55509;50.680;17.942;2022-12-18T02:15:57;101441.52;;;-5.83;86.03
68506;BME280;55509;50.680;17.942;2022-12-18T02:19:01;101445.84;;;-5.87;85.96
68506;BME280;55509;50.680;17.942;2022-12-18T02:25:21;101444.55;;;-5.99;86.15
68506;BME280;55509;50.680;17.942;2022-12-18T02:28:28;101447.44;;;-6.02;86.44
68506;BME280;55509;50.680;17.942;2022-12-18T02:31:34;101450.09;;;-6.04;86.45
68506;BME280;55509;50.680;17.942;2022-12-18T02:34:38;101454.27;;;-6.08;86.61
68506;BME280;55509;50.680;17.942;2022-12-18T02:37:39;101461.18;;;-6.10;86.68
68506;BME280;55509;50.680;17.942;2022-12-18T02:40:43;101467.64;;;-6.08;86.69
68506;BME280;55509;50.680;17.942;2022-12-18T02:43:46;101473.89;;;-6.01;86.86
68506;BME280;55509;50.680;17.942;2022-12-18T02:46:51;101477.98;;;-5.93;86.67
68506;BME280;55509;50.680;17.942;2022-12-18T02:59:13;101477.23;;;-5.64;86.39
68506;BME280;55509;50.680;17.942;2022-12-18T03:02:37;101478.21;;;-5.61;86.09
68506;BME280;55509;50.680;17.942;2022-12-18T03:05:41;101480.37;;;-5.62;86.04
68506;BME280;55509;50.680;17.942;2022-12-18T03:08:46;101486.08;;;-5.67;86.06
68506;BME280;55509;50.680;17.942;2022-12-18T03:11:53;101496.61;;;-5.71;86.25
68506;BME280;55509;50.680;17.942;2022-12-18T03:15:22;101500.44;;;-5.75;86.16
68506;BME280;55509;50.680;17.942;2022-12-18T03:21:42;101507.30;;;-5.85;86.26
68506;BME280;55509;50.680;17.942;2022-12-18T03:24:46;101506.58;;;-5.91;86.17
68506;BME280;55509;50.680;17.942;2022-12-18T03:27:51;101508.52;;;-5.98;86.15
68506;BME280;55509;50.680;17.942;2022-12-18T03:30:56;101504.48;;;-6.02;86.31
68506;BME280;55509;50.680;17.942;2022-12-18T03:34:01;101502.50;;;-6.04;86.53
68506;BME280;55509;50.680;17.942;2022-12-18T03:37:05;101502.77;;;-6.08;86.35
68506;BME280;55509;50.680;17.942;2022-12-18T03:40:07;101503.95;;;-6.10;86.57
68506;BME280;55509;50.680;17.942;2022-12-18T03:47:05;101512.87;;;-6.08;86.68
68506;BME280;55509;50.680;17.942;2022-12-18T03:52:54;101512.13;;;-5.95;86.62
68506;BME280;55509;50.680;17.942;2022-12-18T03:55:58;101516.58;;;-5.88;86.49
68506;BME280;55509;50.680;17.942;2022-12-18T03:59:01;101519.73;;;-5.81;86.46
68506;BME280;55509;50.680;17.942;2022-12-18T04:02:04;101523.22;;;-5.73;86.39
68506;BME280;55509;50.680;17.942;2022-12-18T04:05:06;101524.63;;;-5.67;86.42
68506;BME280;55509;50.680;17.942;2022-12-18T04:08:09;101523.09;;;-5.65;86.50
68506;BME280;55509;50.680;17.942;2022-12-18T04:11:10;101527.08;;;-5.61;86.40
68506;BME280;55509;50.680;17.942;2022-12-18T04:14:12;101531.88;;;-5.61;86.36
68506;BME280;55509;50.680;17.942;2022-12-18T04:17:14;101539.40;;;-5.62;86.29
68506;BME280;55509;50.680;17.942;2022-12-18T04:20:15;101543.91;;;-5.64;86.32
68506;BME280;55509;50.680;17.942;2022-12-18T04:23:17;101550.35;;;-5.67;86.04
68506;BME280;55509;50.680;17.942;2022-12-18T04:26:19;101555.56;;;-5.71;86.03
68506;BME280;55509;50.680;17.942;2022-12-18T04:29:20;101561.30;;;-5.75;86.13
68506;BME280;55509;50.680;17.942;2022-12-18T04:32:22;101566.45;;;-5.80;86.04
68506;BME280;55509;50.680;17.942;2022-12-18T04:35:23;101571.83;;;-5.84;86.07
68506;BME280;55509;50.680;17.942;2022-12-18T04:38:25;101575.98;;;-5.86;86.42
68506;BME280;55509;50.680;17.942;2022-12-18T04:41:26;101577.20;;;-5.88;86.37
68506;BME280;55509;50.680;17.942;2022-12-18T04:44:28;101576.63;;;-5.89;86.16
68506;BME280;55509;50.680;17.942;2022-12-18T04:47:29;101576.02;;;-5.85;86.20
68506;BME280;55509;50.680;17.942;2022-12-18T04:50:31;101582.30;;;-5.81;86.25
68506;BME280;55509;50.680;17.942;2022-12-18T04:53:33;101586.80;;;-5.76;85.96
68506;BME280;55509;50.680;17.942;2022-12-18T04:56:35;101588.20;;;-5.70;86.03
68506;BME280;55509;50.680;17.942;2022-12-18T04:59:36;101587.80;;;-5.66;86.20
68506;BME280;55509;50.680;17.942;2022-12-18T05:02:38;101589.27;;;-5.67;85.87
68506;BME280;55509;50.680;17.942;2022-12-18T05:05:39;101587.28;;;-5.71;85.80
68506;BME280;55509;50.680;17.942;2022-12-18T05:08:41;101584.71;;;-5.76;85.75
68506;BME280;55509;50.680;17.942;2022-12-18T05:11:42;101588.52;;;-5.83;85.66
68506;BME280;55509;50.680;17.942;2022-12-18T05:14:43;101587.02;;;-5.85;85.53
68506;BME280;55509;50.680;17.942;2022-12-18T05:17:45;101593.77;;;-5.84;85.70
68506;BME280;55509;50.680;17.942;2022-12-18T05:20:47;101597.38;;;-5.81;85.63
68506;BME280;55509;50.680;17.942;2022-12-18T05:23:48;101597.98;;;-5.80;85.40
68506;BME280;55509;50.680;17.942;2022-12-18T05:26:50;101598.28;;;-5.81;85.33
68506;BME280;55509;50.680;17.942;2022-12-18T05:29:51;101596.83;;;-5.84;85.39
68506;BME280;55509;50.680;17.942;2022-12-18T05:32:53;101598.90;;;-5.89;85.11
68506;BME280;55509;50.680;17.942;2022-12-18T05:35:55;101603.89;;;-5.96;85.44
68506;BME280;55509;50.680;17.942;2022-12-18T05:38:57;101608.33;;;-5.99;85.76
68506;BME280;55509;50.680;17.942;2022-12-18T05:41:59;101609.38;;;-5.98;85.52
68506;BME280;55509;50.680;17.942;2022-12-18T05:45:01;101616.75;;;-6.04;85.32
68506;BME280;55509;50.680;17.942;2022-12-18T05:48:02;101619.95;;;-6.10;85.56
68506;BME280;55509;50.680;17.942;2022-12-18T05:51:08;101621.27;;;-6.11;85.91
68506;BME280;55509;50.680;17.942;2022-12-18T05:54:10;101632.32;;;-6.12;85.85
68506;BME280;55509;50.680;17.942;2022-12-18T05:57:12;101629.77;;;-6.17;85.89
68506;BME280;55509;50.680;17.942;2022-12-18T06:00:14;101631.63;;;-6.17;85.92
68506;BME280;55509;50.680;17.942;2022-12-18T06:03:15;101637.24;;;-6.12;85.98
68506;BME280;55509;50.680;17.942;2022-12-18T06:06:18;101640.77;;;-6.11;86.00
68506;BME280;55509;50.680;17.942;2022-12-18T06:09:20;101645.39;;;-6.08;86.28
68506;BME280;55509;50.680;17.942;2022-12-18T06:12:22;101643.70;;;-6.08;86.08
68506;BME280;55509;50.680;17.942;2022-12-18T06:15:23;101644.29;;;-6.07;86.23
68506;BME280;55509;50.680;17.942;2022-12-18T06:18:25;101649.70;;;-6.06;86.45
68506;BME280;55509;50.680;17.942;2022-12-18T06:21:27;101657.63;;;-6.08;86.02
68506;BME280;55509;50.680;17.942;2022-12-18T06:24:29;101659.90;;;-6.09;86.00
68506;BME280;55509;50.680;17.942;2022-12-18T06:27:31;101667.41;;;-6.09;85.85
68506;BME280;55509;50.680;17.942;2022-12-18T06:30:34;101671.41;;;-6.11;85.71
68506;BME280;55509;50.680;17.942;2022-12-18T06:33:37;101671.18;;;-6.15;85.64
68506;BME280;55509;50.680;17.942;2022-12-18T06:36:39;101676.27;;;-6.18;86.03
68506;BME280;55509;50.680;17.942;2022-12-18T06:39:40;101679.94;;;-6.19;85.87
68506;BME280;55509;50.680;17.942;2022-12-18T06:42:42;101685.27;;;-6.19;86.00
68506;BME280;55509;50.680;17.942;2022-12-18T06:45:43;101686.33;;;-6.18;85.91
68506;BME280;55509;50.680;17.942;2022-12-18T06:48:48;101689.80;;;-6.20;85.73
68506;BME280;55509;50.680;17.942;2022-12-18T06:51:51;101697.35;;;-6.20;86.00
68506;BME280;55509;50.680;17.942;2022-12-18T06:54:53;101702.54;;;-6.19;86.03
68506;BME280;55509;50.680;17.942;2022-12-18T06:57:54;101698.13;;;-6.14;86.36
68506;BME280;55509;50.680;17.942;2022-12-18T07:01:00;101702.52;;;-6.05;86.25
68506;BME280;55509;50.680;17.942;2022-12-18T07:04:01;101695.65;;;-5.97;86.09
68506;BME280;55509;50.680;17.942;2022-12-18T07:07:03;101699.06;;;-5.93;85.66
68506;BME280;55509;50.680;17.942;2022-12-18T07:10:04;101702.41;;;-5.91;85.46
68506;BME280;55509;50.680;17.942;2022-12-18T07:13:06;101704.74;;;-5.92;85.31
68506;BME280;55509;50.680;17.942;2022-12-18T07:16:08;101708.23;;;-5.94;85.32
68506;BME280;55509;50.680;17.942;2022-12-18T07:19:11;101713.45;;;-5.92;85.41
68506;BME280;55509;50.680;17.942;2022-12-18T07:22:12;101715.49;;;-5.91;84.98
68506;BME280;55509;50.680;17.942;2022-12-18T07:25:14;101721.48;;;-5.86;84.89
68506;BME280;55509;50.680;17.942;2022-12-18T07:28:15;101719.64;;;-5.78;84.81
68506;BME280;55509;50.680;17.942;2022-12-18T07:31:18;101722.52;;;-5.71;84.94
68506;BME280;55509;50.680;17.942;2022-12-18T07:34:20;101730.84;;;-5.65;85.06
68506;BME280;55509;50.680;17.942;2022-12-18T07:37:22;101731.67;;;-5.65;84.31
68506;BME280;55509;50.680;17.942;2022-12-18T07:40:23;101736.83;;;-5.69;83.95
68506;BME280;55509;50.680;17.942;2022-12-18T07:43:25;101737.09;;;-5.73;84.11
68506;BME280;55509;50.680;17.942;2022-12-18T07:46:26;101730.77;;;-5.73;84.50
68506;BME280;55509;50.680;17.942;2022-12-18T07:49:28;101733.38;;;-5.67;84.50
68506;BME280;55509;50.680;17.942;2022-12-18T07:52:29;101740.83;;;-5.59;84.37
68506;BME280;55509;50.680;17.942;2022-12-18T07:55:31;101743.17;;;-5.50;84.24
68506;BME280;55509;50.680;17.942;2022-12-18T07:58:33;101745.39;;;-5.43;83.89
68506;BME280;55509;50.680;17.942;2022-12-18T08:01:35;101745.17;;;-5.38;83.90
68506;BME280;55509;50.680;17.942;2022-12-18T08:04:36;101753.30;;;-5.37;83.71
68506;BME280;55509;50.680;17.942;2022-12-18T08:07:38;101759.90;;;-5.39;83.45
68506;BME280;55509;50.680;17.942;2022-12-18T08:10:40;101769.88;;;-5.41;83.41
68506;BME280;55509;50.680;17.942;2022-12-18T08:13:41;101770.20;;;-5.36;83.36
68506;BME280;55509;50.680;17.942;2022-12-18T08:16:43;101771.39;;;-5.39;82.54
68506;BME280;55509;50.680;17.942;2022-12-18T08:19:44;101778.10;;;-5.46;82.51
68506;BME280;55509;50.680;17.942;2022-12-18T08:22:46;101786.96;;;-5.49;83.15
68506;BME280;55509;50.680;17.942;2022-12-18T08:25:47;101787.15;;;-5.46;83.53
68506;BME280;55509;50.680;17.942;2022-12-18T08:28:50;101786.64;;;-5.41;83.62
68506;BME280;55509;50.680;17.942;2022-12-18T08:31:51;101785.70;;;-5.38;83.29
68506;BME280;55509;50.680;17.942;2022-12-18T08:34:53;101786.54;;;-5.33;83.05
68506;BME280;55509;50.680;17.942;2022-12-18T08:37:54;101794.14;;;-5.25;83.21
68506;BME280;55509;50.680;17.942;2022-12-18T08:40:59;101795.42;;;-5.19;82.94
68506;BME280;55509;50.680;17.942;2022-12-18T08:44:01;101800.52;;;-5.14;82.60
68506;BME280;55509;50.680;17.942;2022-12-18T08:47:22;101800.20;;;-5.16;82.32
68506;BME280;55509;50.680;17.942;2022-12-18T08:50:23;101805.08;;;-5.15;81.85
68506;BME280;55509;50.680;17.942;2022-12-18T08:53:25;101802.24;;;-5.09;82.01
68506;BME280;55509;50.680;17.942;2022-12-18T08:56:26;101804.83;;;-5.02;81.86
68506;BME280;55509;50.680;17.942;2022-12-18T08:59:28;101805.67;;;-4.92;82.39
68506;BME280;55509;50.680;17.942;2022-12-18T09:02:29;101805.64;;;-4.79;82.44
68506;BME280;55509;50.680;17.942;2022-12-18T09:05:31;101812.02;;;-4.69;81.96
68506;BME280;55509;50.680;17.942;2022-12-18T09:08:32;101812.15;;;-4.64;81.50
68506;BME280;55509;50.680;17.942;2022-12-18T09:11:35;101811.96;;;-4.60;81.38
68506;BME280;55509;50.680;17.942;2022-12-18T09:14:36;101817.66;;;-4.46;81.37
68506;BME280;55509;50.680;17.942;2022-12-18T09:17:38;101820.36;;;-4.42;79.61
68506;BME280;55509;50.680;17.942;2022-12-18T09:20:39;101816.55;;;-4.50;79.16
68506;BME280;55509;50.680;17.942;2022-12-18T09:23:41;101818.30;;;-4.55;79.57
68506;BME280;55509;50.680;17.942;2022-12-18T09:26:43;101810.44;;;-4.56;79.59
68506;BME280;55509;50.680;17.942;2022-12-18T09:29:44;101810.17;;;-4.50;79.86
68506;BME280;55509;50.680;17.942;2022-12-18T09:32:46;101812.88;;;-4.35;80.06
68506;BME280;55509;50.680;17.942;2022-12-18T09:35:48;101814.29;;;-4.24;79.33
68506;BME280;55509;50.680;17.942;2022-12-18T09:38:49;101809.62;;;-4.20;79.11
68506;BME280;55509;50.680;17.942;2022-12-18T09:41:52;101802.12;;;-4.19;78.30
68506;BME280;55509;50.680;17.942;2022-12-18T09:44:54;101804.47;;;-4.16;77.89
68506;BME280;55509;50.680;17.942;2022-12-18T09:47:56;101802.29;;;-4.16;77.68
68506;BME280;55509;50.680;17.942;2022-12-18T09:51:00;101800.64;;;-4.07;78.42
68506;BME280;55509;50.680;17.942;2022-12-18T09:54:05;101796.77;;;-3.97;78.47
68506;BME280;55509;50.680;17.942;2022-12-18T09:57:15;101789.91;;;-3.84;79.02
68506;BME280;55509;50.680;17.942;2022-12-18T10:00:22;101785.95;;;-3.73;77.86
68506;BME280;55509;50.680;17.942;2022-12-18T10:03:25;101777.05;;;-3.73;76.45
68506;BME280;55509;50.680;17.942;2022-12-18T10:09:37;101774.52;;;-3.77;75.96
68506;BME280;55509;50.680;17.942;2022-12-18T10:25:59;101746.53;;;-3.76;75.62
68506;BME280;55509;50.680;17.942;2022-12-18T10:28:40;101748.99;;;-3.76;75.35
68506;BME280;55509;50.680;17.942;2022-12-18T10:31:42;101743.98;;;-3.73;75.33
68506;BME280;55509;50.680;17.942;2022-12-18T10:34:48;101746.55;;;-3.71;75.42
68506;BME280;55509;50.680;17.942;2022-12-18T10:41:02;101757.67;;;-3.44;75.15
68506;BME280;55509;50.680;17.942;2022-12-18T10:44:25;101759.60;;;-3.43;74.40
68506;BME280;55509;50.680;17.942;2022-12-18T10:47:27;101761.95;;;-3.39;74.99
68506;BME280;55509;50.680;17.942;2022-12-18T10:50:30;101757.89;;;-3.34;74.31
68506;BME280;55509;50.680;17.942;2022-12-18T10:53:33;101759.00;;;-3.33;74.11
68506;BME280;55509;50.680;17.942;2022-12-18T10:56:35;101756.68;;;-3.29;74.23
68506;BME280;55509;50.680;17.942;2022-12-18T10:59:49;101758.44;;;-3.25;74.06
68506;BME280;55509;50.680;17.942;2022-12-18T11:02:51;101760.07;;;-3.30;74.16
68506;BME280;55509;50.680;17.942;2022-12-18T11:06:06;101755.02;;;-3.28;74.46
68506;BME280;55509;50.680;17.942;2022-12-18T11:09:31;101756.91;;;-3.31;73.93
68506;BME280;55509;50.680;17.942;2022-12-18T11:12:30;101754.08;;;-3.30;74.20
68506;BME280;55509;50.680;17.942;2022-12-18T11:15:31;101758.66;;;-3.28;73.94
68506;BME280;55509;50.680;17.942;2022-12-18T11:18:34;101760.17;;;-3.25;73.88
68506;BME280;55509;50.680;17.942;2022-12-18T11:21:40;101761.36;;;-3.28;73.74
68506;BME280;55509;50.680;17.942;2022-12-18T11:24:43;101768.84;;;-3.33;73.62
68506;BME280;55509;50.680;17.942;2022-12-18T11:27:48;101768.88;;;-3.41;73.58
68506;BME280;55509;50.680;17.942;2022-12-18T11:31:08;101767.20;;;-3.48;73.63
68506;BME280;55509;50.680;17.942;2022-12-18T11:34:20;101772.58;;;-3.59;73.88
68506;BME280;55509;50.680;17.942;2022-12-18T11:37:27;101778.17;;;-3.63;74.14
68506;BME280;55509;50.680;17.942;2022-12-18T11:40:31;101774.20;;;-3.66;74.31
68506;BME280;55509;50.680;17.942;2022-12-18T11:43:38;101777.80;;;-3.66;74.26
68506;BME280;55509;50.680;17.942;2022-12-18T11:46:47;101780.55;;;-3.63;74.35
68506;BME280;55509;50.680;17.942;2022-12-18T11:49:50;101772.75;;;-3.53;74.47
68506;BME280;55509;50.680;17.942;2022-12-18T11:52:53;101777.98;;;-3.46;74.18
68506;BME280;55509;50.680;17.942;2022-12-18T11:59:43;101780.79;;;-3.43;74.10
68506;BME280;55509;50.680;17.942;2022-12-18T12:09:44;101785.19;;;-3.27;73.27
68506;BME280;55509;50.680;17.942;2022-12-18T12:16:05;101784.84;;;-3.44;73.11
68506;BME280;55509;50.680;17.942;2022-12-18T12:31:52;101778.14;;;-3.69;73.86
68506;BME280;55509;50.680;17.942;2022-12-18T12:35:02;101787.89;;;-3.72;73.89
68506;BME280;55509;50.680;17.942;2022-12-18T12:38:19;101783.59;;;-3.75;73.84
68506;BME280;55509;50.680;17.942;2022-12-18T12:41:25;101785.58;;;-3.76;74.65
68506;BME280;55509;50.680;17.942;2022-12-18T12:44:49;101786.42;;;-3.82;74.59
68506;BME280;55509;50.680;17.942;2022-12-18T12:47:53;101787.90;;;-3.83;74.99
68506;BME280;55509;50.680;17.942;2022-12-18T12:50:55;101785.95;;;-3.81;75.18
68506;BME280;55509;50.680;17.942;2022-12-18T12:53:58;101784.31;;;-3.91;74.71
68506;BME280;55509;50.680;17.942;2022-12-18T13:00:07;101791.98;;;-4.24;75.25
68506;BME280;55509;50.680;17.942;2022-12-18T13:09:32;101788.60;;;-4.26;76.19
68506;BME280;55509;50.680;17.942;2022-12-18T13:12:34;101781.46;;;-4.29;76.26
68506;BME280;55509;50.680;17.942;2022-12-18T13:16:04;101778.33;;;-4.36;76.44
68506;BME280;55509;50.680;17.942;2022-12-18T13:19:18;101778.78;;;-4.42;76.65
68506;BME280;55509;50.680;17.942;2022-12-18T13:22:23;101783.27;;;-4.49;76.76
68506;BME280;55509;50.680;17.942;2022-12-18T13:34:41;101789.26;;;-4.70;77.41
68506;BME280;55509;50.680;17.942;2022-12-18T13:37:44;101788.91;;;-4.83;78.01
68506;BME280;55509;50.680;17.942;2022-12-18T13:40:55;101792.02;;;-4.88;78.27
68506;BME280;55509;50.680;17.942;2022-12-18T13:44:10;101794.02;;;-4.89;78.75
68506;BME280;55509;50.680;17.942;2022-12-18T13:47:31;101788.09;;;-4.93;78.83
68506;BME280;55509;50.680;17.942;2022-12-18T13:50:33;101787.69;;;-4.96;78.90
68506;BME280;55509;50.680;17.942;2022-12-18T13:56:46;101790.22;;;-5.12;79.18
68506;BME280;55509;50.680;17.942;2022-12-18T13:59:48;101789.36;;;-5.22;79.45
68506;BME280;55509;50.680;17.942;2022-12-18T14:02:49;101788.47;;;-5.30;79.73
68506;BME280;55509;50.680;17.942;2022-12-18T14:05:52;101790.21;;;-5.39;79.70
68506;BME280;55509;50.680;17.942;2022-12-18T14:08:55;101792.55;;;-5.48;80.01
68506;BME280;55509;50.680;17.942;2022-12-18T14:11:56;101803.09;;;-5.59;80.35
68506;BME280;55509;50.680;17.942;2022-12-18T14:18:34;101805.47;;;-5.76;80.91
68506;BME280;55509;50.680;17.942;2022-12-18T14:21:37;101805.15;;;-5.80;81.08
68506;BME280;55509;50.680;17.942;2022-12-18T14:24:39;101802.49;;;-5.89;81.08
68506;BME280;55509;50.680;17.942;2022-12-18T14:27:42;101806.04;;;-5.99;81.29
68506;BME280;55509;50.680;17.942;2022-12-18T14:30:45;101811.70;;;-6.09;81.61
68506;BME280;55509;50.680;17.942;2022-12-18T14:33:47;101808.95;;;-6.16;81.77
68506;BME280;55509;50.680;17.942;2022-12-18T14:36:52;101809.90;;;-6.24;82.20
68506;BME280;55509;50.680;17.942;2022-12-18T14:39:58;101814.35;;;-6.33;82.34
68506;BME280;55509;50.680;17.942;2022-12-18T14:43:00;101819.52;;;-6.44;82.51
68506;BME280;55509;50.680;17.942;2022-12-18T14:46:02;101814.43;;;-6.56;82.86
68506;BME280;55509;50.680;17.942;2022-12-18T14:52:26;101819.36;;;-6.72;83.15
68506;BME280;55509;50.680;17.942;2022-12-18T14:55:29;101827.89;;;-6.77;83.55
68506;BME280;55509;50.680;17.942;2022-12-18T14:58:30;101834.03;;;-6.82;83.45
68506;BME280;55509;50.680;17.942;2022-12-18T15:04:59;101844.15;;;-6.90;83.81
68506;BME280;55509;50.680;17.942;2022-12-18T15:08:02;101852.73;;;-6.96;84.07
68506;BME280;55509;50.680;17.942;2022-12-18T15:11:22;101849.17;;;-7.03;84.29
68506;BME280;55509;50.680;17.942;2022-12-18T15:17:33;101848.66;;;-7.16;84.88
68506;BME280;55509;50.680;17.942;2022-12-18T15:26:44;101857.75;;;-7.24;85.56
68506;BME280;55509;50.680;17.942;2022-12-18T15:29:59;101852.18;;;-7.23;85.85
68506;BME280;55509;50.680;17.942;2022-12-18T15:33:17;101855.29;;;-7.21;86.13
68506;BME280;55509;50.680;17.942;2022-12-18T15:36:23;101847.82;;;-7.21;86.45
68506;BME280;55509;50.680;17.942;2022-12-18T15:39:25;101850.02;;;-7.23;86.34
68506;BME280;55509;50.680;17.942;2022-12-18T15:42:26;101855.29;;;-7.26;86.85
68506;BME280;55509;50.680;17.942;2022-12-18T15:45:47;101854.80;;;-7.25;86.96
68506;BME280;55509;50.680;17.942;2022-12-18T15:48:49;101850.23;;;-7.23;86.94
68506;BME280;55509;50.680;17.942;2022-12-18T15:51:54;101846.92;;;-7.23;86.98
68506;BME280;55509;50.680;17.942;2022-12-18T15:54:57;101850.02;;;-7.25;87.15
68506;BME280;55509;50.680;17.942;2022-12-18T15:58:18;101852.39;;;-7.28;87.62
68506;BME280;55509;50.680;17.942;2022-12-18T16:01:22;101856.16;;;-7.27;87.56
68506;BME280;55509;50.680;17.942;2022-12-18T16:04:28;101853.09;;;-7.29;87.24
68506;BME280;55509;50.680;17.942;2022-12-18T16:07:30;101849.38;;;-7.36;87.13
68506;BME280;55509;50.680;17.942;2022-12-18T16:10:31;101847.40;;;-7.43;86.91
68506;BME280;55509;50.680;17.942;2022-12-18T16:13:33;101848.89;;;-7.52;87.03
68506;BME280;55509;50.680;17.942;2022-12-18T16:16:34;101852.25;;;-7.60;87.06
68506;BME280;55509;50.680;17.942;2022-12-18T16:19:36;101850.29;;;-7.65;86.99
68506;BME280;55509;50.680;17.942;2022-12-18T16:22:37;101846.88;;;-7.69;87.05
68506;BME280;55509;50.680;17.942;2022-12-18T16:25:39;101848.17;;;-7.75;87.28
68506;BME280;55509;50.680;17.942;2022-12-18T16:28:40;101843.61;;;-7.78;87.44
68506;BME280;55509;50.680;17.942;2022-12-18T16:31:42;101833.32;;;-7.83;87.69
68506;BME280;55509;50.680;17.942;2022-12-18T16:34:44;101830.30;;;-7.85;87.63
68506;BME280;55509;50.680;17.942;2022-12-18T16:37:46;101819.77;;;-7.86;87.79
68506;BME280;55509;50.680;17.942;2022-12-18T16:40:48;101813.55;;;-7.87;88.16
68506;BME280;55509;50.680;17.942;2022-12-18T16:44:08;101797.26;;;-7.88;88.34
68506;BME280;55509;50.680;17.942;2022-12-18T16:47:09;101790.58;;;-7.88;88.13
68506;BME280;55509;50.680;17.942;2022-12-18T16:50:12;101787.17;;;-7.92;87.68
68506;BME280;55509;50.680;17.942;2022-12-18T16:53:13;101797.70;;;-7.99;87.49
68506;BME280;55509;50.680;17.942;2022-12-18T16:56:15;101795.56;;;-8.09;87.28
68506;BME280;55509;50.680;17.942;2022-12-18T16:59:17;101798.73;;;-8.16;87.33
68506;BME280;55509;50.680;17.942;2022-12-18T17:02:20;101796.26;;;-8.21;87.45
68506;BME280;55509;50.680;17.942;2022-12-18T17:05:22;101806.06;;;-8.22;87.76
68506;BME280;55509;50.680;17.942;2022-12-18T17:08:24;101807.68;;;-8.26;87.43
68506;BME280;55509;50.680;17.942;2022-12-18T17:11:26;101811.83;;;-8.31;87.58
68506;BME280;55509;50.680;17.942;2022-12-18T17:14:28;101820.56;;;-8.37;87.57
68506;BME280;55509;50.680;17.942;2022-12-18T17:17:30;101820.55;;;-8.42;87.73
68506;BME280;55509;50.680;17.942;2022-12-18T17:20:31;101822.25;;;-8.44;87.73
68506;BME280;55509;50.680;17.942;2022-12-18T17:23:33;101826.99;;;-8.44;87.76
68506;BME280;55509;50.680;17.942;2022-12-18T17:26:34;101828.73;;;-8.46;87.76
68506;BME280;55509;50.680;17.942;2022-12-18T17:29:36;101829.12;;;-8.47;87.81
68506;BME280;55509;50.680;17.942;2022-12-18T17:32:38;101824.69;;;-8.50;87.85
68506;BME280;55509;50.680;17.942;2022-12-18T17:35:39;101822.04;;;-8.51;87.89
68506;BME280;55509;50.680;17.942;2022-12-18T17:38:41;101813.05;;;-8.52;87.77
68506;BME280;55509;50.680;17.942;2022-12-18T17:41:43;101816.04;;;-8.53;88.05